createdAt,value
2023-01-27T00:00:56.714Z,32.90
2023-01-27T00:03:24.509Z,33.00
2023-01-27T00:05:51.461Z,33.00
2023-01-27T00:08:18.986Z,33.00
2023-01-27T00:10:46.191Z,33.00
2023-01-27T00:13:27.101Z,33.00
2023-01-27T00:15:55.231Z,33.00
2023-01-27T00:18:23.558Z,33.10
2023-01-27T00:21:09.615Z,33.10
2023-01-27T00:23:55.533Z,33.00
2023-01-27T00:26:22.871Z,33.00
2023-01-27T00:28:49.845Z,33.10
2023-01-27T00:31:36.922Z,33.00
2023-01-27T00:34:11.602Z,33.10
2023-01-27T00:36:41.433Z,33.10
2023-01-27T00:39:11.907Z,33.10
2023-01-27T00:41:40.283Z,33.10
2023-01-27T00:44:12.842Z,33.10
2023-01-27T00:46:40.754Z,33.10
2023-01-27T00:49:08.819Z,33.10
2023-01-27T00:51:36.591Z,33.10
2023-01-27T00:54:04.986Z,33.10
2023-01-27T00:56:32.248Z,33.10
2023-01-27T00:58:59.983Z,33.20
2023-01-27T01:01:27.457Z,33.10
2023-01-27T01:03:54.398Z,33.10
2023-01-27T01:06:22.095Z,33.60
2023-01-27T01:08:49.900Z,33.20
2023-01-27T01:11:19.667Z,33.20
2023-01-27T01:13:47.831Z,33.20
2023-01-27T01:16:22.225Z,33.20
2023-01-27T01:18:49.955Z,33.10
2023-01-27T01:21:17.257Z,33.10
2023-01-27T01:23:46.292Z,33.10
2023-01-27T01:26:18.513Z,33.10
2023-01-27T01:28:46.500Z,33.20
2023-01-27T01:31:17.883Z,33.20
2023-01-27T01:33:45.908Z,33.20
2023-01-27T01:36:19.669Z,33.20
2023-01-27T01:38:47.771Z,33.30
2023-01-27T01:41:19.917Z,33.20
2023-01-27T01:43:48.235Z,33.20
2023-01-27T01:46:15.511Z,33.20
2023-01-27T01:48:51.058Z,33.20
2023-01-27T01:51:41.726Z,33.20
2023-01-27T01:54:33.404Z,33.90
2023-01-27T01:57:16.027Z,33.20
2023-01-27T01:59:55.780Z,33.20
2023-01-27T02:02:26.531Z,33.30
2023-01-27T02:05:08.426Z,33.20
2023-01-27T02:07:47.976Z,33.30
2023-01-27T02:10:15.495Z,33.30
2023-01-27T02:12:42.468Z,33.20
2023-01-27T02:15:11.679Z,33.30
2023-01-27T02:17:38.996Z,33.90
2023-01-27T02:20:26.345Z,33.20
2023-01-27T02:23:11.916Z,33.40
2023-01-27T02:26:33.759Z,33.40
2023-01-27T02:29:14.123Z,33.30
2023-01-27T02:31:41.415Z,33.40
2023-01-27T02:34:14.071Z,33.20
2023-01-27T02:36:58.734Z,33.20
2023-01-27T02:39:37.867Z,33.40
2023-01-27T02:42:10.351Z,33.30
2023-01-27T02:44:37.376Z,33.30
2023-01-27T02:47:04.414Z,33.20
2023-01-27T02:49:31.441Z,33.40
2023-01-27T02:51:58.497Z,33.90
2023-01-27T02:54:28.907Z,33.40
2023-01-27T02:56:55.894Z,33.30
2023-01-27T02:59:22.776Z,33.30
2023-01-27T03:01:49.832Z,33.40
2023-01-27T03:04:16.711Z,33.30
2023-01-27T03:06:43.702Z,33.40
2023-01-27T03:09:10.606Z,33.40
2023-01-27T03:11:55.785Z,33.40
2023-01-27T03:14:22.751Z,33.40
2023-01-27T03:17:08.203Z,33.30
2023-01-27T03:19:35.105Z,33.30
2023-01-27T03:22:03.143Z,33.30
2023-01-27T03:24:30.309Z,33.30
2023-01-27T03:26:57.345Z,33.30
2023-01-27T03:29:43.027Z,33.30
2023-01-27T03:32:09.854Z,33.40
2023-01-27T03:34:36.809Z,33.40
2023-01-27T03:37:22.430Z,33.40
2023-01-27T03:40:07.997Z,33.40
2023-01-27T03:42:53.154Z,33.30
2023-01-27T03:45:38.575Z,33.40
2023-01-27T03:48:05.702Z,33.30
2023-01-27T03:50:37.982Z,33.40
2023-01-27T03:53:06.173Z,33.50
2023-01-27T03:55:35.215Z,33.40
2023-01-27T03:58:18.351Z,33.40
2023-01-27T04:00:56.902Z,33.40
2023-01-27T04:03:45.615Z,33.50
2023-01-27T04:06:37.724Z,33.40
2023-01-27T04:09:06.741Z,33.50
2023-01-27T04:11:52.539Z,33.40
2023-01-27T04:14:20.151Z,33.40
2023-01-27T04:16:47.304Z,33.40
2023-01-27T04:19:15.135Z,33.50
2023-01-27T04:21:42.697Z,33.50
2023-01-27T04:24:22.602Z,33.50
2023-01-27T04:27:01.123Z,33.50
2023-01-27T04:29:36.141Z,33.50
2023-01-27T04:32:06.144Z,33.50
2023-01-27T04:34:33.367Z,33.50
2023-01-27T04:37:01.152Z,33.50
2023-01-27T04:39:28.049Z,33.50
2023-01-27T04:41:56.857Z,33.50
2023-01-27T04:44:24.336Z,33.50
2023-01-27T04:46:52.114Z,33.50
2023-01-27T04:49:19.112Z,33.50
2023-01-27T04:51:47.496Z,33.50
2023-01-27T04:54:14.564Z,33.50
2023-01-27T04:56:55.523Z,33.50
2023-01-27T04:59:22.475Z,33.60
2023-01-27T05:01:49.553Z,33.50
2023-01-27T05:04:16.434Z,33.60
2023-01-27T05:06:43.282Z,33.60
2023-01-27T05:09:10.187Z,33.30
2023-01-27T05:11:37.136Z,33.60
2023-01-27T05:14:04.017Z,33.60
2023-01-27T05:16:30.958Z,33.50
2023-01-27T05:18:57.887Z,33.60
2023-01-27T05:21:30.977Z,33.60
2023-01-27T05:23:58.114Z,33.70
2023-01-27T05:26:27.855Z,33.60
2023-01-27T05:28:58.417Z,33.60
2023-01-27T05:31:30.134Z,33.50
2023-01-27T05:34:01.068Z,33.70
2023-01-27T05:36:29.788Z,33.70
2023-01-27T05:38:59.114Z,33.70
2023-01-27T05:41:28.691Z,33.60
2023-01-27T05:43:56.774Z,33.60
2023-01-27T05:46:27.819Z,33.60
2023-01-27T05:49:05.576Z,33.60
2023-01-27T05:51:37.951Z,33.60
2023-01-27T05:54:05.579Z,33.60
2023-01-27T05:56:33.584Z,33.60
2023-01-27T05:59:00.879Z,33.60
2023-01-27T06:01:32.833Z,33.60
2023-01-27T06:04:00.028Z,33.60
2023-01-27T06:06:29.571Z,33.60
2023-01-27T06:08:56.818Z,33.60
2023-01-27T06:11:24.876Z,33.60
2023-01-27T06:13:53.882Z,33.70
2023-01-27T06:16:22.883Z,33.70
2023-01-27T06:18:49.962Z,33.70
2023-01-27T06:21:17.668Z,33.70
2023-01-27T06:23:44.646Z,33.70
2023-01-27T06:26:16.340Z,33.70
2023-01-27T06:28:44.100Z,33.70
2023-01-27T06:31:15.760Z,33.60
2023-01-27T06:33:43.064Z,33.60
2023-01-27T06:36:14.261Z,33.70
2023-01-27T06:38:42.126Z,33.80
2023-01-27T06:41:09.512Z,33.90
2023-01-27T06:43:36.690Z,34.00
2023-01-27T06:46:05.885Z,34.20
2023-01-27T06:48:34.137Z,34.30
2023-01-27T06:51:01.473Z,34.50
2023-01-27T06:53:28.487Z,34.60
2023-01-27T06:55:58.346Z,34.90
2023-01-27T06:58:26.378Z,34.80
2023-01-27T07:00:53.569Z,34.90
2023-01-27T07:03:20.781Z,35.10
2023-01-27T07:05:47.887Z,35.10
2023-01-27T07:08:15.647Z,35.20
2023-01-27T07:10:42.676Z,35.20
2023-01-27T07:13:13.282Z,35.30
2023-01-27T07:15:40.888Z,35.30
2023-01-27T07:18:07.833Z,35.30
2023-01-27T07:20:35.172Z,35.30
2023-01-27T07:23:05.115Z,35.30
2023-01-27T07:25:34.631Z,35.30
2023-01-27T07:28:03.362Z,35.30
2023-01-27T07:30:31.801Z,35.30
2023-01-27T07:33:14.015Z,35.30
2023-01-27T07:35:42.689Z,35.40
2023-01-27T07:38:10.015Z,35.40
2023-01-27T07:40:37.004Z,35.20
2023-01-27T07:43:04.237Z,35.30
2023-01-27T07:45:31.813Z,35.30
2023-01-27T07:48:09.027Z,35.30
2023-01-27T07:50:36.730Z,35.10
2023-01-27T07:53:05.545Z,35.10
2023-01-27T07:55:34.010Z,35.10
2023-01-27T07:58:08.423Z,34.80
2023-01-27T08:00:36.053Z,35.00
2023-01-27T08:03:04.038Z,35.00
2023-01-27T08:05:34.375Z,35.00
2023-01-27T08:08:04.548Z,34.90
2023-01-27T08:10:31.833Z,34.90
2023-01-27T08:12:58.836Z,34.80
2023-01-27T08:15:25.860Z,34.70
2023-01-27T08:17:57.305Z,34.70
2023-01-27T08:20:27.197Z,34.60
2023-01-27T08:22:54.208Z,34.60
2023-01-27T08:25:21.885Z,34.50
2023-01-27T08:27:54.304Z,34.50
2023-01-27T08:30:21.981Z,34.40
2023-01-27T08:32:49.431Z,34.60
2023-01-27T08:35:16.571Z,34.50
2023-01-27T08:37:43.617Z,34.40
2023-01-27T08:40:11.865Z,34.40
2023-01-27T08:42:39.031Z,34.30
2023-01-27T08:45:06.523Z,34.30
2023-01-27T08:47:33.452Z,34.20
2023-01-27T08:50:00.401Z,34.20
2023-01-27T08:52:30.765Z,34.10
2023-01-27T08:54:58.690Z,34.10
2023-01-27T08:57:25.843Z,34.00
2023-01-27T08:59:52.908Z,34.00
2023-01-27T09:02:22.344Z,34.00
2023-01-27T09:04:49.387Z,33.90
2023-01-27T09:07:17.044Z,33.90
2023-01-27T09:09:47.954Z,33.90
2023-01-27T09:12:15.137Z,33.70
2023-01-27T09:14:42.117Z,33.80
2023-01-27T09:17:09.087Z,33.80
2023-01-27T09:19:36.577Z,33.90
2023-01-27T09:22:03.550Z,33.80
2023-01-27T09:24:30.381Z,33.90
2023-01-27T09:27:00.072Z,33.80
2023-01-27T09:29:29.268Z,33.80
2023-01-27T09:31:56.273Z,33.70
2023-01-27T09:34:23.367Z,33.70
2023-01-27T09:36:59.912Z,33.70
2023-01-27T09:39:28.949Z,33.60
2023-01-27T09:42:30.959Z,33.70
2023-01-27T09:45:20.363Z,33.70
2023-01-27T09:48:07.531Z,33.60
2023-01-27T09:50:43.625Z,33.60
2023-01-27T09:53:43.481Z,33.70
2023-01-27T09:56:22.302Z,33.60
2023-01-27T09:59:05.987Z,33.70
2023-01-27T10:02:01.305Z,33.70
2023-01-27T10:04:34.321Z,33.60
2023-01-27T10:07:36.666Z,33.70
2023-01-27T10:10:16.430Z,33.50
2023-01-27T10:13:42.405Z,33.60
2023-01-27T10:16:11.139Z,33.70
2023-01-27T10:19:28.009Z,33.80
2023-01-27T10:22:23.968Z,33.70
2023-01-27T10:25:25.438Z,33.70
2023-01-27T10:27:58.941Z,33.70
2023-01-27T10:30:37.884Z,33.80
2023-01-27T10:33:20.244Z,33.70
2023-01-27T10:35:53.972Z,33.70
2023-01-27T10:38:43.640Z,33.80
2023-01-27T10:41:25.486Z,33.70
2023-01-27T10:44:19.557Z,33.80
2023-01-27T10:47:27.973Z,33.90
2023-01-27T10:50:21.762Z,33.80
2023-01-27T10:53:12.197Z,33.80
2023-01-27T10:56:01.060Z,33.90
2023-01-27T10:59:10.974Z,33.90
2023-01-27T11:02:11.059Z,33.80
2023-01-27T11:04:48.289Z,33.80
2023-01-27T11:07:24.489Z,33.90
2023-01-27T11:10:02.250Z,33.80
2023-01-27T11:12:36.070Z,33.80
2023-01-27T11:15:27.260Z,33.70
2023-01-27T11:18:16.027Z,33.70
2023-01-27T11:20:54.536Z,33.60
2023-01-27T11:23:28.843Z,33.80
2023-01-27T11:26:23.909Z,33.80
2023-01-27T11:29:31.620Z,33.70
2023-01-27T11:32:30.889Z,33.60
2023-01-27T11:35:11.193Z,33.70
2023-01-27T11:37:41.447Z,33.70
2023-01-27T11:40:27.220Z,34.30
2023-01-27T11:42:58.205Z,33.60
2023-01-27T11:45:26.900Z,33.60
2023-01-27T11:48:00.892Z,33.60
2023-01-27T11:50:33.638Z,33.50
2023-01-27T11:53:25.658Z,33.50
2023-01-27T11:56:02.400Z,33.40
2023-01-27T11:59:07.807Z,33.50
2023-01-27T12:02:04.503Z,33.40
2023-01-27T12:04:59.787Z,33.60
2023-01-27T12:07:40.703Z,33.40
2023-01-27T12:10:31.363Z,33.50
2023-01-27T12:13:18.400Z,33.40
2023-01-27T12:15:55.513Z,33.40
2023-01-27T12:18:23.623Z,33.60
2023-01-27T12:21:03.739Z,33.50
2023-01-27T12:23:47.897Z,33.50
2023-01-27T12:26:15.248Z,33.60
2023-01-27T12:28:53.122Z,33.60
2023-01-27T12:31:33.258Z,33.60
2023-01-27T12:34:13.295Z,33.60
2023-01-27T12:36:43.846Z,33.60
2023-01-27T12:39:57.395Z,33.60
2023-01-27T12:42:40.579Z,33.60
2023-01-27T12:45:31.060Z,33.70
2023-01-27T12:48:10.124Z,33.60
2023-01-27T12:50:50.120Z,33.60
2023-01-27T12:53:21.448Z,33.60
2023-01-27T12:56:14.871Z,33.60
2023-01-27T12:58:47.731Z,33.60
2023-01-27T13:01:28.272Z,33.70
2023-01-27T13:04:21.844Z,33.60
2023-01-27T13:07:13.443Z,34.30
2023-01-27T13:09:54.352Z,33.70
2023-01-27T13:12:24.047Z,33.70
2023-01-27T13:15:16.782Z,33.70
2023-01-27T13:17:56.140Z,33.60
2023-01-27T13:20:42.384Z,33.60
2023-01-27T13:23:18.403Z,33.50
2023-01-27T13:26:09.474Z,33.60
2023-01-27T13:28:53.623Z,33.60
2023-01-27T13:32:09.964Z,33.50
2023-01-27T13:34:54.932Z,33.40
2023-01-27T13:37:32.664Z,33.50
2023-01-27T13:40:18.138Z,33.50
2023-01-27T13:43:16.789Z,33.50
2023-01-27T13:46:04.908Z,33.40
2023-01-27T13:49:03.425Z,33.40
2023-01-27T13:51:33.556Z,33.10
2023-01-27T13:54:05.383Z,33.20
2023-01-27T13:56:51.363Z,33.20
2023-01-27T13:59:44.046Z,33.10
2023-01-27T14:02:48.423Z,33.00
2023-01-27T14:05:33.398Z,33.00
2023-01-27T14:08:03.769Z,33.00
2023-01-27T14:11:08.561Z,33.00
2023-01-27T14:14:24.560Z,33.00
2023-01-27T14:17:09.807Z,33.00
2023-01-27T14:19:51.748Z,33.00
2023-01-27T14:22:48.424Z,33.00
2023-01-27T14:25:36.748Z,33.00
2023-01-27T14:28:46.853Z,33.00
2023-01-27T14:31:21.067Z,32.90
2023-01-27T14:34:30.821Z,33.00
2023-01-27T14:37:24.988Z,33.00
2023-01-27T14:40:16.863Z,33.00
2023-01-27T14:43:10.748Z,33.00
2023-01-27T14:45:45.618Z,33.10
2023-01-27T14:48:47.380Z,33.10
2023-01-27T14:51:41.951Z,33.00
2023-01-27T14:54:44.381Z,33.10
2023-01-27T14:57:55.887Z,33.10
2023-01-27T15:00:46.547Z,33.00
2023-01-27T15:03:19.381Z,33.00
2023-01-27T15:06:33.802Z,33.00
2023-01-27T15:09:57.135Z,33.10
2023-01-27T15:13:00.606Z,32.90
2023-01-27T15:15:46.195Z,33.60
2023-01-27T15:18:30.550Z,33.00
2023-01-27T15:21:01.062Z,33.00
2023-01-27T15:23:33.854Z,33.00
2023-01-27T15:26:06.725Z,33.00
2023-01-27T15:28:39.961Z,33.00
2023-01-27T15:31:17.147Z,33.10
2023-01-27T15:34:02.885Z,33.00
2023-01-27T15:36:31.944Z,33.00
2023-01-27T15:39:11.163Z,32.90
2023-01-27T15:42:03.146Z,33.00
2023-01-27T15:44:42.320Z,32.90
2023-01-27T15:47:23.888Z,33.00
2023-01-27T15:50:23.356Z,32.90
2023-01-27T15:52:51.415Z,33.00
2023-01-27T15:55:32.506Z,33.00
2023-01-27T15:58:20.469Z,32.90
2023-01-27T16:00:55.900Z,33.00
2023-01-27T16:03:44.081Z,32.90
2023-01-27T16:06:18.249Z,32.90
2023-01-27T16:08:52.853Z,32.90
2023-01-27T16:11:28.437Z,32.90
2023-01-27T16:14:16.960Z,32.90
2023-01-27T16:17:08.465Z,32.90
2023-01-27T16:19:47.716Z,32.90
2023-01-27T16:22:23.632Z,33.00
2023-01-27T16:25:12.282Z,32.90
2023-01-27T16:27:57.776Z,32.90
2023-01-27T16:30:30.323Z,32.90
2023-01-27T16:33:07.519Z,32.90
2023-01-27T16:35:45.591Z,32.90
2023-01-27T16:38:34.322Z,32.80
2023-01-27T16:41:09.819Z,32.70
2023-01-27T16:43:49.791Z,32.50
2023-01-27T16:46:45.532Z,32.30
2023-01-27T16:49:28.149Z,32.20
2023-01-27T16:52:05.469Z,31.60
2023-01-27T16:54:44.387Z,31.50
2023-01-27T16:57:35.652Z,31.50
2023-01-27T17:00:20.005Z,31.60
2023-01-27T17:02:48.093Z,31.80
2023-01-27T17:05:18.132Z,31.90
2023-01-27T17:08:25.963Z,32.00
2023-01-27T17:11:04.225Z,31.90
2023-01-27T17:13:44.390Z,32.10
2023-01-27T17:16:26.045Z,32.00
2023-01-27T17:18:57.363Z,32.00
2023-01-27T17:21:47.733Z,32.10
2023-01-27T17:24:24.563Z,32.00
2023-01-27T17:27:34.321Z,32.00
2023-01-27T17:30:18.321Z,31.90
2023-01-27T17:32:51.997Z,32.10
2023-01-27T17:35:33.377Z,32.00
2023-01-27T17:38:24.324Z,32.00
2023-01-27T17:40:55.086Z,31.80
2023-01-27T17:43:23.421Z,31.90
2023-01-27T17:46:19.933Z,31.80
2023-01-27T17:49:11.662Z,31.80
2023-01-27T17:51:58.061Z,31.80
2023-01-27T17:55:01.282Z,31.80
2023-01-27T17:57:36.172Z,31.80
2023-01-27T18:00:27.089Z,31.80
2023-01-27T18:03:26.752Z,31.80
2023-01-27T18:05:55.299Z,31.80
2023-01-27T18:08:26.326Z,31.80
2023-01-27T18:11:07.996Z,31.80
2023-01-27T18:13:40.030Z,31.80
2023-01-27T18:16:20.300Z,31.80
2023-01-27T18:18:49.634Z,31.80
2023-01-27T18:21:24.250Z,31.70
2023-01-27T18:23:58.339Z,31.80
2023-01-27T18:26:31.133Z,31.70
2023-01-27T18:29:12.795Z,31.80
2023-01-27T18:31:52.950Z,31.80
2023-01-27T18:34:31.183Z,31.90
2023-01-27T18:37:03.501Z,31.80
2023-01-27T18:39:39.867Z,31.80
2023-01-27T18:42:15.230Z,31.80
2023-01-27T18:44:42.415Z,31.70
2023-01-27T18:47:28.954Z,31.60
2023-01-27T18:50:26.635Z,31.70
2023-01-27T18:52:54.499Z,31.70
2023-01-27T18:55:30.326Z,31.60
2023-01-27T18:57:59.778Z,31.30
2023-01-27T19:00:37.705Z,31.50
2023-01-27T19:03:14.671Z,31.50
2023-01-27T19:05:41.909Z,31.60
2023-01-27T19:08:16.012Z,31.60
2023-01-27T19:10:44.020Z,31.70
2023-01-27T19:13:11.551Z,31.70
2023-01-27T19:15:48.294Z,31.60
2023-01-27T19:18:26.458Z,32.30
2023-01-27T19:20:54.016Z,31.70
2023-01-27T19:23:21.980Z,31.70
2023-01-27T19:25:53.389Z,31.70
2023-01-27T19:28:30.953Z,31.70
2023-01-27T19:31:01.941Z,31.90
2023-01-27T19:33:33.594Z,31.80
2023-01-27T19:36:35.002Z,31.80
2023-01-27T19:39:14.747Z,31.90
2023-01-27T19:41:45.571Z,31.90
2023-01-27T19:44:13.773Z,31.70
2023-01-27T19:46:42.691Z,31.80
2023-01-27T19:49:17.688Z,31.80
2023-01-27T19:51:45.462Z,32.00
2023-01-27T19:54:12.690Z,31.90
2023-01-27T19:56:39.600Z,31.90
2023-01-27T19:59:06.893Z,31.90
2023-01-27T20:01:33.888Z,32.10
2023-01-27T20:04:01.001Z,32.00
2023-01-27T20:06:31.335Z,32.00
2023-01-27T20:09:00.637Z,32.00
2023-01-27T20:11:34.279Z,32.00
2023-01-27T20:14:04.583Z,32.00
2023-01-27T20:16:33.042Z,32.00
2023-01-27T20:19:00.293Z,32.00
2023-01-27T20:21:30.137Z,32.10
2023-01-27T20:23:57.555Z,32.10
2023-01-27T20:26:24.578Z,32.10
2023-01-27T20:28:51.624Z,32.10
2023-01-27T20:31:25.140Z,32.00
2023-01-27T20:33:54.986Z,32.10
2023-01-27T20:36:23.778Z,32.10
2023-01-27T20:38:52.009Z,32.20
2023-01-27T20:41:24.783Z,32.10
2023-01-27T20:43:56.992Z,32.30
2023-01-27T20:46:24.030Z,32.30
2023-01-27T20:48:50.960Z,32.20
2023-01-27T20:51:17.894Z,32.20
2023-01-27T20:53:45.831Z,32.30
2023-01-27T20:56:24.282Z,32.30
2023-01-27T20:58:51.666Z,32.40
2023-01-27T21:01:22.103Z,32.30
2023-01-27T21:03:50.574Z,32.20
2023-01-27T21:06:21.300Z,32.30
2023-01-27T21:08:49.430Z,32.30
2023-01-27T21:11:19.632Z,32.30
2023-01-27T21:13:48.554Z,32.30
2023-01-27T21:16:15.987Z,32.30
2023-01-27T21:18:44.051Z,32.30
2023-01-27T21:21:29.357Z,32.30
2023-01-27T21:24:00.108Z,32.60
2023-01-27T21:26:27.403Z,32.40
2023-01-27T21:28:54.433Z,32.40
2023-01-27T21:31:24.290Z,32.40
2023-01-27T21:33:51.595Z,32.40
2023-01-27T21:36:19.434Z,32.40
2023-01-27T21:38:47.254Z,32.40
2023-01-27T21:41:35.857Z,32.40
2023-01-27T21:44:23.500Z,32.40
2023-01-27T21:46:50.440Z,32.40
2023-01-27T21:49:17.520Z,32.40
2023-01-27T21:51:44.611Z,32.40
2023-01-27T21:54:11.545Z,32.40
2023-01-27T21:56:38.691Z,32.50
2023-01-27T21:59:05.710Z,32.90
2023-01-27T22:01:34.168Z,32.60
2023-01-27T22:04:01.210Z,32.50
2023-01-27T22:06:28.135Z,32.50
2023-01-27T22:08:55.467Z,32.50
2023-01-27T22:11:22.417Z,32.60
2023-01-27T22:13:49.391Z,32.50
2023-01-27T22:16:17.018Z,32.60
2023-01-27T22:18:43.993Z,32.60
2023-01-27T22:21:10.951Z,32.60
2023-01-27T22:23:37.776Z,32.60
2023-01-27T22:26:09.166Z,32.70
2023-01-27T22:28:36.102Z,32.70
2023-01-27T22:31:03.288Z,32.60
2023-01-27T22:33:32.082Z,32.60
2023-01-27T22:36:04.458Z,32.60
2023-01-27T22:38:31.711Z,32.60
2023-01-27T22:40:59.198Z,32.70
2023-01-27T22:43:26.426Z,32.70
2023-01-27T22:45:53.411Z,32.70
2023-01-27T22:48:20.413Z,32.60
2023-01-27T22:50:47.346Z,32.70
2023-01-27T22:53:17.428Z,32.70
2023-01-27T22:55:44.400Z,32.90
2023-01-27T22:58:11.735Z,32.80
2023-01-27T23:00:39.070Z,32.70
2023-01-27T23:03:08.846Z,32.80
2023-01-27T23:05:35.830Z,32.70
2023-01-27T23:08:02.710Z,32.80
2023-01-27T23:10:29.720Z,32.70
2023-01-27T23:12:56.679Z,32.70
2023-01-27T23:15:23.573Z,32.70
2023-01-27T23:17:50.543Z,32.80
2023-01-27T23:20:17.855Z,32.80
2023-01-27T23:22:44.871Z,32.80
2023-01-27T23:25:12.914Z,32.80
2023-01-27T23:27:41.783Z,32.80
2023-01-27T23:30:12.133Z,32.80
2023-01-27T23:32:40.082Z,32.80
2023-01-27T23:35:07.801Z,32.80
2023-01-27T23:37:35.135Z,32.80
2023-01-27T23:40:02.067Z,32.90
2023-01-27T23:42:29.265Z,32.80
2023-01-27T23:44:56.290Z,32.90
2023-01-27T23:47:23.381Z,32.90
2023-01-27T23:49:50.263Z,32.90
2023-01-27T23:52:17.392Z,32.90
2023-01-27T23:54:44.407Z,32.90
2023-01-27T23:57:11.535Z,32.80
2023-01-27T23:59:38.658Z,33.00
